Time;durP1;ratioP1;P1;durP2;ratioP2;P2;SDS_P1;SDS_P2;PMS_P1;PMS_P2;Temp;Humidity;BMP_temperature;BMP_pressure;BME280_temperature;BME280_humidity;BME280_pressure;Samples;Min_cycle;Max_cycle;Signal;HPM_P1;HPM_P2
2023/05/29 00:00:25;;;;;;;8.88;3.22;;;;;;;15.53;39.89;100602.44;1728530;81;21463;-67
2023/05/29 00:02:54;;;;;;;6.90;2.87;;;;;;;15.44;40.01;100598.27;1728906;82;21066;-65
2023/05/29 00:05:23;;;;;;;5.55;3.10;;;;;;;15.37;39.04;100596.09;1729004;82;21051;-66
2023/05/29 00:07:58;;;;;;;4.60;2.75;;;;;;;15.37;38.80;100598.86;1729193;82;21034;-65
2023/05/29 00:10:26;;;;;;;6.12;2.67;;;;;;;15.39;38.67;100600.86;1728937;82;21082;-66
2023/05/29 00:12:56;;;;;;;6.08;3.10;;;;;;;15.39;38.54;100595.34;1728875;82;21053;-66
2023/05/29 00:15:26;;;;;;;4.78;2.80;;;;;;;15.38;38.78;100592.80;1728973;83;21034;-66
2023/05/29 00:17:55;;;;;;;5.45;2.70;;;;;;;15.36;38.40;100598.55;1728601;82;21038;-65
2023/05/29 00:20:25;;;;;;;4.62;2.50;;;;;;;15.35;38.42;100598.23;1728483;82;21478;-67
2023/05/29 00:22:54;;;;;;;4.75;2.62;;;;;;;15.37;37.59;100600.23;1712630;83;21018;-67
2023/05/29 00:25:24;;;;;;;8.90;2.65;;;;;;;15.40;37.92;100612.21;1719523;82;21003;-66
2023/05/29 00:27:53;;;;;;;5.37;3.12;;;;;;;15.44;37.73;100604.33;1719406;82;21041;-66
2023/05/29 00:30:22;;;;;;;5.67;2.37;;;;;;;15.46;37.32;100605.80;1719010;82;21057;-67
2023/05/29 00:32:54;;;;;;;5.03;2.72;;;;;;;15.49;37.57;100598.97;1719281;83;21477;-66
2023/05/29 00:35:23;;;;;;;3.98;2.30;;;;;;;15.47;37.32;100601.96;1719240;82;21037;-66
2023/05/29 00:37:53;;;;;;;4.42;2.40;;;;;;;15.43;37.50;100600.72;1719043;82;21018;-65
2023/05/29 00:40:22;;;;;;;6.05;2.30;;;;;;;15.37;37.63;100605.76;1719323;83;21054;-65
2023/05/29 00:42:52;;;;;;;4.45;2.47;;;;;;;15.36;37.64;100603.22;1719192;83;21057;-65
2023/05/29 00:45:20;;;;;;;3.27;2.33;;;;;;;15.38;37.47;100599.17;1719141;82;21018;-64
2023/05/29 00:47:49;;;;;;;5.80;2.47;;;;;;;15.35;37.46;100594.62;1719090;83;21066;-66
2023/05/29 00:50:20;;;;;;;3.47;2.17;;;;;;;15.32;37.33;100593.16;1719102;83;21148;-67
2023/05/29 00:52:49;;;;;;;3.20;2.17;;;;;;;15.31;37.36;100594.77;1719388;83;21038;-67
2023/05/29 00:55:18;;;;;;;7.35;2.42;;;;;;;15.31;37.20;100587.33;1719290;82;21109;-66
2023/05/29 00:57:47;;;;;;;4.37;2.47;;;;;;;15.33;37.09;100585.73;1695410;83;21025;-65
2023/05/29 01:00:18;;;;;;;4.62;2.25;;;;;;;15.34;37.25;100589.64;1719217;83;20994;-66
2023/05/29 01:02:48;;;;;;;4.45;2.22;;;;;;;15.37;36.90;100586.43;1719370;83;21065;-66
2023/05/29 01:05:19;;;;;;;4.03;2.22;;;;;;;15.35;37.11;100591.33;1719163;83;21050;-66
2023/05/29 01:07:48;;;;;;;6.58;2.15;;;;;;;15.33;37.18;100600.38;1719471;83;21494;-65
2023/05/29 01:10:18;;;;;;;4.62;2.33;;;;;;;15.26;37.28;100591.83;1719428;83;21065;-65
2023/05/29 01:13:02;;;;;;;4.50;2.12;;;;;;;15.17;37.52;100596.78;1719389;83;21081;-65
2023/05/29 01:15:43;;;;;;;6.03;2.15;;;;;;;15.14;37.55;100606.35;1719277;82;21037;-65
2023/05/29 01:18:27;;;;;;;4.28;2.15;;;;;;;15.14;37.60;100594.47;1719310;83;21085;-66
2023/05/29 01:21:31;;;;;;;3.58;2.08;;;;;;;15.13;37.62;100594.16;1719493;83;20998;-65
2023/05/29 01:24:13;;;;;;;2.90;2.02;;;;;;;15.12;37.64;100602.13;1719045;83;21058;-66
2023/05/29 01:27:01;;;;;;;4.00;2.15;;;;;;;15.09;37.61;100602.03;1719108;82;21471;-66
2023/05/29 01:29:31;;;;;;;;;;;;;;;15.10;37.38;100597.36;1698025;83;21054;-65
2023/05/29 01:32:01;;;;;;;6.83;1.95;;;;;;;15.14;37.11;100600.83;1703420;84;20216;-66
2023/05/29 01:34:31;;;;;;;3.92;1.90;;;;;;;15.18;37.03;100598.47;1719114;83;21065;-65
2023/05/29 01:37:01;;;;;;;5.65;2.10;;;;;;;15.21;37.09;100596.64;1719150;83;21038;-65
2023/05/29 01:39:33;;;;;;;3.83;1.90;;;;;;;15.23;37.11;100607.77;1703410;84;21467;-65
2023/05/29 01:42:02;;;;;;;5.28;2.05;;;;;;;15.22;37.06;100610.76;1719174;83;21046;-65
2023/05/29 01:44:32;;;;;;;3.85;2.15;;;;;;;15.25;36.98;100605.33;1719195;83;21058;-65
2023/05/29 01:47:01;;;;;;;4.83;2.27;;;;;;;15.28;36.82;100614.54;1703638;84;21051;-65
2023/05/29 01:49:30;;;;;;;4.08;1.90;;;;;;;15.26;37.10;100610.63;1719388;83;21050;-64
2023/05/29 01:51:59;;;;;;;2.72;1.82;;;;;;;15.24;36.88;100615.52;1719224;83;21006;-65
2023/05/29 01:54:28;;;;;;;5.47;1.87;;;;;;;15.24;37.06;100619.66;1703459;84;21063;-67
2023/05/29 01:56:57;;;;;;;2.30;1.70;;;;;;;15.21;36.79;100617.34;1719366;83;21006;-66
2023/05/29 01:59:26;;;;;;;3.40;1.90;;;;;;;15.18;37.03;100615.88;1695421;83;21490;-65
2023/05/29 02:01:55;;;;;;;4.25;1.95;;;;;;;15.20;36.92;100621.17;1703508;84;21051;-65
2023/05/29 02:04:24;;;;;;;3.83;1.90;;;;;;;15.21;37.02;100620.11;1719392;83;21038;-65
2023/05/29 02:07:00;;;;;;;3.47;2.02;;;;;;;15.21;37.14;100622.34;1719204;83;21046;-64
2023/05/29 02:09:43;;;;;;;4.50;2.10;;;;;;;15.20;37.32;100626.70;1713802;84;21106;-63
2023/05/29 02:12:16;;;;;;;6.25;2.60;;;;;;;15.14;37.45;100633.11;1668165;84;21055;-65
2023/05/29 02:14:46;;;;;;;3.83;1.98;;;;;;;15.12;37.55;100633.86;1713372;84;21075;-65
2023/05/29 02:17:14;;;;;;;10.13;2.80;;;;;;;15.09;37.71;100636.53;1713347;84;21114;-65
2023/05/29 02:19:45;;;;;;;6.83;2.52;;;;;;;15.08;37.93;100632.08;1714077;84;21038;-66
2023/05/29 02:22:14;;;;;;;5.28;2.30;;;;;;;15.07;37.94;100632.30;1714101;84;21034;-64
2023/05/29 02:24:43;;;;;;;4.20;2.10;;;;;;;15.07;38.07;100639.20;1712540;81;21075;-65
2023/05/29 02:27:13;;;;;;;3.33;2.02;;;;;;;15.04;38.18;100628.61;1698377;84;21054;-64
2023/05/29 02:29:43;;;;;;;3.37;1.92;;;;;;;14.97;38.30;100627.27;1698505;84;21455;-65
2023/05/29 02:32:12;;;;;;;4.30;2.10;;;;;;;14.93;38.56;100634.80;1710782;84;21042;-64
2023/05/29 02:34:43;;;;;;;5.30;1.90;;;;;;;14.93;38.58;100627.89;1710546;84;21004;-65
2023/05/29 02:37:12;;;;;;;4.20;2.00;;;;;;;14.91;38.73;100625.36;1710799;84;21039;-64
2023/05/29 02:39:41;;;;;;;2.75;1.67;;;;;;;14.86;39.02;100624.64;1710677;84;20999;-66
2023/05/29 02:42:11;;;;;;;4.75;1.90;;;;;;;14.88;39.09;100628.02;1710853;84;21011;-64
2023/05/29 02:44:40;;;;;;;5.53;1.90;;;;;;;14.88;39.07;100625.27;1710565;84;21617;-65
2023/05/29 02:47:09;;;;;;;6.33;2.22;;;;;;;14.87;39.01;100626.86;1710348;84;21047;-65
2023/05/29 02:49:38;;;;;;;3.65;1.92;;;;;;;14.89;39.43;100622.82;1710914;84;21059;-63
2023/05/29 02:52:07;;;;;;;3.72;1.82;;;;;;;14.88;39.46;100621.66;1710592;84;21129;-64
2023/05/29 02:54:36;;;;;;;3.95;1.90;;;;;;;14.89;39.74;100621.44;1710488;84;21063;-65
2023/05/29 02:57:05;;;;;;;7.05;2.20;;;;;;;14.89;39.73;100624.20;1710508;84;21078;-65
2023/05/29 02:59:35;;;;;;;5.95;2.30;;;;;;;14.87;40.03;100616.67;1710682;84;21019;-64
2023/05/29 03:02:04;;;;;;;3.50;2.00;;;;;;;14.84;40.32;100616.27;1710716;84;21063;-64
2023/05/29 03:04:35;;;;;;;8.63;5.42;;;;;;;14.83;40.23;100615.42;1710486;84;21601;-64
2023/05/29 03:07:04;;;;;;;9.08;4.05;;;;;;;14.86;40.46;100618.27;1710712;84;21074;-65
2023/05/29 03:09:33;;;;;;;4.53;2.40;;;;;;;14.81;40.65;100612.04;1710513;84;21015;-66
2023/05/29 03:12:02;;;;;;;6.42;2.20;;;;;;;14.82;40.84;100623.39;1710759;84;21039;-65
2023/05/29 03:14:35;;;;;;;2.55;1.57;;;;;;;14.85;40.57;100622.95;1664429;84;21087;-65
2023/05/29 03:17:07;;;;;;;3.67;1.80;;;;;;;14.88;40.20;100617.52;1664771;86;21043;-64
2023/05/29 03:19:38;;;;;;;4.45;1.77;;;;;;;14.93;39.95;100623.22;1668847;85;21134;-64
2023/05/29 03:22:08;;;;;;;7.20;2.20;;;;;;;15.00;39.76;100613.56;1668620;86;21107;-65
2023/05/29 03:24:38;;;;;;;5.22;1.75;;;;;;;15.07;40.00;100621.27;1684443;85;21107;-65
2023/05/29 03:27:08;;;;;;;6.83;1.98;;;;;;;15.07;40.46;100624.87;1694784;84;21063;-65
2023/05/29 03:29:38;;;;;;;7.37;2.00;;;;;;;15.08;40.60;100625.18;1694681;85;21102;-64
2023/05/29 03:32:08;;;;;;;3.87;1.65;;;;;;;15.10;40.70;100624.96;1694632;85;21074;-64
2023/05/29 03:34:37;;;;;;;3.30;1.82;;;;;;;15.14;40.72;100631.73;1694718;85;21074;-63
2023/05/29 03:37:08;;;;;;;4.53;1.72;;;;;;;15.16;40.56;100623.53;1694449;83;21082;-64
2023/05/29 03:39:37;;;;;;;5.28;2.08;;;;;;;15.17;40.48;100624.38;1694777;83;21098;-65
2023/05/29 03:42:07;;;;;;;4.92;1.75;;;;;;;15.21;40.67;100618.73;1694475;85;21447;-65
2023/05/29 03:44:36;;;;;;;3.70;1.70;;;;;;;15.24;40.52;100629.32;1694396;84;21146;-65
2023/05/29 03:47:08;;;;;;;5.53;1.80;;;;;;;15.26;40.60;100628.56;1694628;85;21427;-66
2023/05/29 03:49:37;;;;;;;5.40;1.77;;;;;;;15.30;40.53;100628.43;1678519;85;21047;-64
2023/05/29 03:52:06;;;;;;;4.20;1.72;;;;;;;15.33;40.02;100625.76;1694468;83;21039;-66
2023/05/29 03:54:35;;;;;;;5.08;1.47;;;;;;;15.37;40.02;100628.38;1694499;85;21038;-64
2023/05/29 03:57:06;;;;;;;5.53;1.98;;;;;;;15.38;40.05;100629.54;1694320;85;21086;-66
2023/05/29 03:59:36;;;;;;;6.70;1.70;;;;;;;15.43;39.83;100631.09;1656382;85;21111;-64
2023/05/29 04:02:07;;;;;;;3.77;1.70;;;;;;;15.46;39.78;100633.41;1694368;85;21106;-65
2023/05/29 04:04:39;;;;;;;6.15;1.77;;;;;;;15.50;39.17;100624.98;1694328;85;21034;-64
2023/05/29 04:07:09;;;;;;;4.30;1.72;;;;;;;15.59;39.16;100627.50;1694576;85;21051;-64
2023/05/29 04:09:39;;;;;;;5.05;1.57;;;;;;;15.68;39.14;100630.33;1694557;85;21082;-65
2023/05/29 04:12:08;;;;;;;3.70;1.70;;;;;;;15.73;39.15;100630.49;1694498;83;21070;-66
2023/05/29 04:14:38;;;;;;;4.17;1.60;;;;;;;15.78;39.30;100627.89;1694519;85;21074;-66
2023/05/29 04:17:08;;;;;;;3.60;2.02;;;;;;;15.85;39.04;100627.30;1694575;83;21039;-66
2023/05/29 04:19:37;;;;;;;4.85;1.70;;;;;;;15.93;38.57;100630.31;1694664;84;21059;-64
2023/05/29 04:22:06;;;;;;;15.18;2.98;;;;;;;15.95;38.25;100627.63;1694699;84;21046;-65
2023/05/29 04:24:36;;;;;;;10.45;2.10;;;;;;;16.03;38.73;100638.39;1697127;83;21031;-65
2023/05/29 04:27:05;;;;;;;4.75;2.10;;;;;;;16.09;38.89;100631.95;1689873;84;21110;-66
2023/05/29 04:29:35;;;;;;;2.92;1.87;;;;;;;16.13;38.81;100636.48;1714406;84;21082;-65
2023/05/29 04:32:06;;;;;;;4.05;1.82;;;;;;;16.20;38.24;100631.73;1714257;84;21070;-64
2023/05/29 04:34:36;;;;;;;4.05;1.90;;;;;;;16.26;38.81;100634.15;1690303;84;21031;-65
2023/05/29 04:37:08;;;;;;;7.37;2.00;;;;;;;16.30;38.56;100636.76;1713973;84;21023;-64
2023/05/29 04:39:38;;;;;;;3.02;1.65;;;;;;;16.34;38.66;100633.84;1713974;84;21079;-65
2023/05/29 04:42:07;;;;;;;4.47;1.60;;;;;;;16.40;37.54;100626.01;1714127;84;21035;-65
2023/05/29 04:44:36;;;;;;;3.40;2.10;;;;;;;16.45;36.72;100629.77;1714003;84;21090;-64
2023/05/29 04:47:06;;;;;;;2.98;1.80;;;;;;;16.52;36.78;100628.31;1714103;84;21035;-65
2023/05/29 04:49:35;;;;;;;3.67;1.67;;;;;;;16.61;36.30;100631.07;1714253;84;21082;-65
2023/05/29 04:52:06;;;;;;;4.80;1.80;;;;;;;16.68;36.05;100628.25;1714170;84;21105;-64
2023/05/29 04:54:37;;;;;;;6.42;2.45;;;;;;;16.75;35.92;100629.86;1714052;84;21509;-65
2023/05/29 04:57:08;;;;;;;3.60;1.62;;;;;;;16.87;35.89;100630.45;1714445;84;21059;-63
2023/05/29 04:59:39;;;;;;;3.62;1.85;;;;;;;17.05;35.82;100633.21;1635485;86;21112;-64
2023/05/29 05:02:08;;;;;;;5.47;2.00;;;;;;;17.34;35.53;100637.05;1656821;86;21830;-65
2023/05/29 05:04:42;;;;;;;2.50;1.65;;;;;;;17.69;35.12;100638.57;1656929;86;21538;-65
2023/05/29 05:07:19;;;;;;;5.22;1.95;;;;;;;18.03;34.12;100633.59;1637009;86;21084;-64
2023/05/29 05:09:53;;;;;;;4.65;2.20;;;;;;;18.31;33.84;100631.50;1656909;86;21072;-64
2023/05/29 05:12:31;;;;;;;4.62;1.70;;;;;;;18.61;33.58;100628.58;1636637;86;21053;-64
2023/05/29 05:15:05;;;;;;;3.12;1.70;;;;;;;18.98;32.98;100618.53;1657116;86;21144;-65
2023/05/29 05:17:35;;;;;;;7.87;2.25;;;;;;;19.28;32.08;100624.66;1656770;86;21536;-65
2023/05/29 05:20:06;;;;;;;4.90;1.90;;;;;;;19.52;31.68;100631.00;1656839;86;21063;-64
2023/05/29 05:22:36;;;;;;;5.70;1.80;;;;;;;19.72;31.36;100627.72;1656775;86;21032;-65
2023/05/29 05:25:06;;;;;;;11.93;3.05;;;;;;;20.00;30.87;100629.56;1705932;84;21039;-65
2023/05/29 05:27:35;;;;;;;7.25;1.92;;;;;;;20.30;30.32;100625.03;1690440;84;21074;-65
2023/05/29 05:30:08;;;;;;;4.45;1.80;;;;;;;20.52;30.31;100627.88;1714422;84;21039;-63
2023/05/29 05:32:40;;;;;;;4.33;1.87;;;;;;;20.78;30.07;100634.61;1690864;84;21527;-63
2023/05/29 05:35:12;;;;;;;5.15;1.77;;;;;;;21.09;29.86;100640.02;1647607;84;21075;-65
2023/05/29 05:37:41;;;;;;;4.17;2.10;;;;;;;21.45;29.37;100634.30;1714227;84;21082;-64
2023/05/29 05:40:11;;;;;;;3.67;2.20;;;;;;;21.67;28.73;100639.84;1714064;84;21150;-63
2023/05/29 05:42:43;;;;;;;5.37;2.02;;;;;;;21.68;28.81;100635.39;1712903;84;21211;-64
2023/05/29 05:45:13;;;;;;;3.95;1.95;;;;;;;21.75;28.85;100639.34;1714305;84;21137;-65
2023/05/29 05:47:43;;;;;;;8.83;2.15;;;;;;;21.81;28.84;100640.52;1714338;84;21102;-64
2023/05/29 05:50:13;;;;;;;4.12;1.95;;;;;;;22.00;28.77;100641.50;1714329;84;21075;-65
2023/05/29 05:52:44;;;;;;;7.03;1.95;;;;;;;22.22;28.07;100638.09;1714071;84;21078;-66
2023/05/29 05:55:12;;;;;;;6.50;2.08;;;;;;;22.27;27.99;100645.11;1689792;84;21011;-65
2023/05/29 05:57:42;;;;;;;4.35;1.82;;;;;;;22.44;27.85;100642.14;1714111;84;21082;-65
2023/05/29 06:00:13;;;;;;;2.98;1.75;;;;;;;22.63;27.61;100650.34;1714274;84;21121;-65
2023/05/29 06:02:45;;;;;;;16.55;3.02;;;;;;;22.79;27.10;100645.70;1714102;84;21459;-65
2023/05/29 06:05:17;;;;;;;4.55;1.92;;;;;;;22.83;27.19;100639.88;1712987;84;21016;-65
2023/05/29 06:07:46;;;;;;;5.22;1.87;;;;;;;23.01;27.08;100643.59;1714305;84;21118;-65
2023/05/29 06:10:16;;;;;;;8.18;2.10;;;;;;;23.22;26.92;100650.63;1714348;84;21039;-65
2023/05/29 06:12:46;;;;;;;3.87;1.98;;;;;;;23.51;26.25;100639.26;1714135;84;21015;-65
2023/05/29 06:15:18;;;;;;;5.53;2.60;;;;;;;23.64;25.85;100651.33;1713623;84;21032;-66
2023/05/29 06:17:46;;;;;;;4.35;2.65;;;;;;;23.61;25.85;100649.09;1714259;84;21038;-65
2023/05/29 06:20:16;;;;;;;5.90;2.08;;;;;;;23.57;26.14;100649.92;1714148;84;21050;-64
2023/05/29 06:22:50;;;;;;;6.45;2.08;;;;;;;23.56;26.58;100647.69;1714299;84;21015;-66
2023/05/29 06:25:18;;;;;;;4.50;1.82;;;;;;;23.67;26.13;100651.33;1712438;84;21063;-64
2023/05/29 06:27:47;;;;;;;5.87;1.82;;;;;;;23.92;25.97;100654.70;1703835;84;21107;-66
2023/05/29 06:30:17;;;;;;;5.17;1.80;;;;;;;24.22;25.66;100651.91;1703837;84;21103;-64
2023/05/29 06:32:48;;;;;;;6.55;2.30;;;;;;;24.48;25.46;100641.52;1703725;84;21055;-64
2023/05/29 06:35:18;;;;;;;7.50;2.60;;;;;;;24.68;25.00;100644.82;1704046;84;21035;-64
2023/05/29 06:37:47;;;;;;;3.50;2.00;;;;;;;24.60;24.58;100637.84;1703686;84;21109;-65
2023/05/29 06:40:16;;;;;;;4.05;2.08;;;;;;;24.44;25.09;100638.17;1703725;84;21067;-66
2023/05/29 06:42:46;;;;;;;4.05;1.70;;;;;;;24.51;25.06;100638.71;1703902;84;21040;-64
2023/05/29 06:45:17;;;;;;;4.37;1.92;;;;;;;24.70;24.56;100637.53;1703687;84;21507;-64
2023/05/29 06:47:46;;;;;;;6.72;2.12;;;;;;;24.76;24.60;100635.02;1703842;84;21067;-65
2023/05/29 06:50:15;;;;;;;3.17;1.52;;;;;;;24.92;24.60;100631.02;1762465;81;21054;-64
2023/05/29 06:52:45;;;;;;;5.53;1.85;;;;;;;25.15;24.09;100632.34;1762451;81;21010;-66
2023/05/29 06:55:26;;;;;;;5.37;1.50;;;;;;;25.43;22.95;100627.98;1762294;81;20987;-67
2023/05/29 06:57:58;;;;;;;9.18;2.62;;;;;;;25.26;22.84;100628.34;1762382;81;21082;-64
2023/05/29 07:00:28;;;;;;;5.05;1.75;;;;;;;25.03;23.67;100622.03;1762343;81;21415;-62
2023/05/29 07:02:59;;;;;;;4.78;1.70;;;;;;;25.10;23.82;100622.55;1759123;80;21509;-66
2023/05/29 07:05:29;;;;;;;2.12;1.50;;;;;;;25.30;23.12;100615.41;1762522;80;21058;-65
2023/05/29 07:07:59;;;;;;;3.45;1.25;;;;;;;25.39;22.67;100615.10;1762159;80;21436;-65
2023/05/29 07:10:30;;;;;;;2.80;0.98;;;;;;;25.34;22.29;100612.30;1762238;81;21082;-68
2023/05/29 07:13:02;;;;;;;2.22;1.22;;;;;;;25.32;22.03;100608.95;1709668;84;21055;-65
2023/05/29 07:15:34;;;;;;;4.70;1.42;;;;;;;25.31;22.03;100615.69;1709461;84;21462;-65
2023/05/29 07:18:04;;;;;;;3.62;1.30;;;;;;;25.47;22.14;100612.25;1709298;83;21482;-65
2023/05/29 07:20:33;;;;;;;2.77;1.40;;;;;;;25.64;21.88;100608.46;1709430;83;21051;-66
2023/05/29 07:23:03;;;;;;;6.30;1.45;;;;;;;25.68;21.66;100608.18;1709646;84;21050;-66
2023/05/29 07:25:33;;;;;;;5.62;1.98;;;;;;;25.59;21.84;100605.13;1705909;83;21093;-60
2023/05/29 07:28:03;;;;;;;32.30;3.15;;;;;;;25.62;22.24;100614.94;1684647;84;21517;-61
2023/05/29 07:30:35;;;;;;;32.48;4.03;;;;;;;25.62;22.07;100612.69;1697561;83;21030;-62
2023/05/29 07:33:05;;;;;;;4.17;1.60;;;;;;;25.63;22.64;100615.77;1733416;83;21026;-62
2023/05/29 07:35:34;;;;;;;3.95;1.70;;;;;;;25.84;22.44;100610.30;1733514;82;21022;-62
2023/05/29 07:38:05;;;;;;;52.05;3.40;;;;;;;26.07;22.33;100615.16;1733347;82;21062;-62
2023/05/29 07:40:34;;;;;;;4.30;1.70;;;;;;;26.17;22.20;100605.23;1733046;81;21567;-67
2023/05/29 07:43:05;;;;;;;4.85;1.80;;;;;;;26.29;21.60;100611.01;1732263;82;21030;-66
2023/05/29 07:45:40;;;;;;;6.15;1.60;;;;;;;26.38;21.61;100618.52;1732597;82;21170;-66
2023/05/29 07:48:09;;;;;;;6.22;1.67;;;;;;;26.50;20.90;100606.87;1733507;83;21101;-65
2023/05/29 07:50:38;;;;;;;6.53;1.90;;;;;;;26.38;20.96;100618.52;1733363;82;21042;-66
2023/05/29 07:53:08;;;;;;;3.33;1.52;;;;;;;26.42;21.41;100616.79;1733613;81;21043;-65
2023/05/29 07:55:41;;;;;;;3.30;1.57;;;;;;;26.56;21.31;100610.45;1733489;83;21102;-67
2023/05/29 07:58:11;;;;;;;3.35;1.80;;;;;;;26.67;21.56;100612.88;1733269;82;21038;-64
2023/05/29 08:00:42;;;;;;;3.35;1.80;;;;;;;26.79;21.49;100614.69;1733299;82;21034;-65
2023/05/29 08:03:11;;;;;;;3.80;1.50;;;;;;;26.92;20.93;100608.90;1733486;81;21497;-64
2023/05/29 08:05:59;;;;;;;3.47;1.72;;;;;;;26.83;20.88;100613.52;1733386;82;21046;-66
2023/05/29 08:08:33;;;;;;;10.18;2.50;;;;;;;26.80;21.13;100612.72;1733501;83;21065;-67
2023/05/29 08:11:03;;;;;;;5.85;2.00;;;;;;;26.98;21.22;100609.70;1716834;83;21038;-65
2023/05/29 08:13:32;;;;;;;3.70;1.90;;;;;;;27.28;20.93;100609.27;1733689;82;21033;-65
2023/05/29 08:16:01;;;;;;;5.03;1.77;;;;;;;27.42;20.35;100604.58;1733489;82;21046;-65
2023/05/29 08:18:32;;;;;;;6.55;3.02;;;;;;;27.49;20.30;100604.19;1733261;81;21022;-67
2023/05/29 08:21:01;;;;;;;3.25;2.08;;;;;;;27.54;20.30;100596.23;1717021;83;21085;-65
2023/05/29 08:23:31;;;;;;;5.60;2.80;;;;;;;27.55;20.24;100601.56;1733346;82;21077;-66
2023/05/29 08:26:03;;;;;;;6.42;2.25;;;;;;;27.61;19.78;100595.30;1717644;82;21530;-65
2023/05/29 08:28:32;;;;;;;4.50;1.92;;;;;;;27.30;19.89;100590.67;1733320;83;21050;-66
2023/05/29 08:31:02;;;;;;;2.90;1.40;;;;;;;26.99;20.39;100584.08;1733583;82;21058;-64
2023/05/29 08:33:32;;;;;;;3.30;1.70;;;;;;;26.84;20.68;100591.30;1733430;82;21038;-70
2023/05/29 08:36:01;;;;;;;4.72;1.40;;;;;;;26.97;20.34;100589.14;1733428;83;21038;-66
2023/05/29 08:38:30;;;;;;;3.52;1.60;;;;;;;27.03;20.53;100592.19;1742754;82;21078;-68
2023/05/29 08:40:59;;;;;;;7.58;2.50;;;;;;;27.15;20.35;100585.53;1748528;82;21513;-68
2023/05/29 08:43:32;;;;;;;5.25;1.90;;;;;;;27.11;20.39;100585.87;1748598;82;21051;-68
2023/05/29 08:46:03;;;;;;;4.05;1.50;;;;;;;27.05;20.07;100584.28;1748812;82;21018;-67
2023/05/29 08:48:33;;;;;;;5.35;1.87;;;;;;;26.99;20.49;100582.67;1748625;81;21027;-67
2023/05/29 08:51:02;;;;;;;7.90;1.60;;;;;;;27.13;20.42;100579.95;1721711;82;21121;-67
2023/05/29 08:53:33;;;;;;;2.90;1.70;;;;;;;27.35;19.89;100579.36;1748542;82;20991;-68
2023/05/29 08:56:03;;;;;;;7.15;1.60;;;;;;;27.35;19.77;100580.77;1748692;82;21031;-67
2023/05/29 08:58:33;;;;;;;2.98;1.45;;;;;;;27.15;19.83;100581.89;1748878;82;21050;-67
2023/05/29 09:01:03;;;;;;;3.22;1.40;;;;;;;26.95;20.14;100576.52;1749081;81;21384;-68
2023/05/29 09:03:37;;;;;;;5.62;1.60;;;;;;;26.82;20.16;100576.70;1748967;82;21094;-66
2023/05/29 09:06:08;;;;;;;5.03;1.57;;;;;;;26.53;20.57;100561.30;1766080;81;21070;-68
2023/05/29 09:08:38;;;;;;;3.20;1.67;;;;;;;26.49;20.50;100567.25;1767908;80;21081;-68
2023/05/29 09:11:08;;;;;;;3.15;1.67;;;;;;;26.31;20.67;100573.62;1767851;80;21030;-67
2023/05/29 09:13:38;;;;;;;3.92;1.87;;;;;;;26.17;20.95;100565.90;1767789;80;21006;-67
2023/05/29 09:16:08;;;;;;;3.90;1.62;;;;;;;25.95;20.65;100552.91;1767634;80;21548;-66
2023/05/29 09:18:38;;;;;;;4.20;1.90;;;;;;;25.95;20.65;100552.91;1753176;81;21528;-68
2023/05/29 09:21:12;;;;;;;4.37;1.80;;;;;;;25.61;21.20;100558.53;1768092;80;21038;-68
2023/05/29 09:23:40;;;;;;;3.45;1.40;;;;;;;25.49;21.44;100558.08;1767841;80;21512;-67
2023/05/29 09:26:09;;;;;;;3.70;1.60;;;;;;;25.53;21.52;100554.95;1770939;79;21571;-73
2023/05/29 09:28:38;;;;;;;3.75;1.60;;;;;;;25.58;21.28;100554.34;1765300;80;21065;-69
2023/05/29 09:31:17;;;;;;;6.80;2.70;;;;;;;25.50;21.22;100546.55;1765480;80;21062;-68
2023/05/29 09:33:48;;;;;;;3.05;1.70;;;;;;;25.44;21.50;100541.28;1789488;80;20994;-68
2023/05/29 09:36:23;;;;;;;9.10;1.70;;;;;;;25.49;21.45;100543.48;1789260;80;21034;-68
2023/05/29 09:39:09;;;;;;;4.95;1.70;;;;;;;25.37;21.12;100537.41;1789157;80;21445;-67
2023/05/29 09:41:48;;;;;;;4.87;1.80;;;;;;;25.19;21.50;100540.88;1788886;79;21046;-68
2023/05/29 09:44:18;;;;;;;5.08;2.15;;;;;;;25.19;21.25;100536.11;1788922;80;21453;-68
2023/05/29 09:46:48;;;;;;;3.95;1.40;;;;;;;25.15;21.42;100535.58;1788974;80;21006;-67
2023/05/29 09:49:17;;;;;;;4.22;1.55;;;;;;;25.18;21.83;100535.00;1765836;80;21049;-67
2023/05/29 09:51:48;;;;;;;6.37;1.77;;;;;;;25.09;21.86;100524.97;1740539;80;21505;-67
2023/05/29 09:54:18;;;;;;;8.43;1.92;;;;;;;25.06;22.13;100521.34;1788913;80;21030;-68
2023/05/29 09:56:48;;;;;;;4.78;1.55;;;;;;;25.08;22.07;100525.26;1789165;79;21019;-69
2023/05/29 09:59:18;;;;;;;3.52;1.40;;;;;;;24.96;21.97;100513.81;1789172;80;21018;-69
2023/05/29 10:01:50;;;;;;;4.90;2.17;;;;;;;24.82;22.02;100513.34;1789060;80;21049;-68
2023/05/29 10:04:20;;;;;;;4.83;1.72;;;;;;;24.72;22.00;100521.25;1789003;80;21826;-69
2023/05/29 10:06:51;;;;;;;3.98;1.60;;;;;;;24.59;22.91;100503.63;1788960;80;21006;-73
2023/05/29 10:09:21;;;;;;;3.72;1.50;;;;;;;24.47;22.92;100501.17;1789114;80;21037;-73
2023/05/29 10:11:53;;;;;;;8.68;1.90;;;;;;;24.46;23.32;100504.27;1788980;80;21073;-72
2023/05/29 10:14:22;;;;;;;2.30;1.60;;;;;;;24.38;23.15;100496.45;1765791;80;21018;-69
2023/05/29 10:16:53;;;;;;;6.25;1.95;;;;;;;24.42;23.21;100497.56;1789035;80;20994;-70
2023/05/29 10:19:27;;;;;;;6.75;1.45;;;;;;;24.44;23.46;100496.70;1789049;80;21474;-69
2023/05/29 10:21:57;;;;;;;2.70;1.57;;;;;;;24.55;23.50;100498.33;1789330;80;21041;-66
2023/05/29 10:24:26;;;;;;;3.40;1.57;;;;;;;24.63;23.53;100494.92;1775901;80;21030;-66
2023/05/29 10:26:56;;;;;;;4.20;1.55;;;;;;;24.69;23.42;100485.36;1765540;80;21517;-66
2023/05/29 10:29:53;;;;;;;5.20;1.77;;;;;;;24.70;23.26;100482.84;1762052;81;21022;-67
2023/05/29 10:32:56;;;;;;;3.30;1.57;;;;;;;24.74;22.92;100490.97;1758812;81;21050;-69
2023/05/29 10:35:39;;;;;;;5.90;1.90;;;;;;;24.73;22.96;100497.70;1761945;80;21010;-68
2023/05/29 10:38:16;;;;;;;4.47;2.72;;;;;;;24.69;22.72;100503.58;1746186;80;21121;-66
2023/05/29 10:40:47;;;;;;;3.55;1.52;;;;;;;24.60;22.53;100497.74;1762100;81;21193;-68
2023/05/29 10:43:34;;;;;;;8.20;2.25;;;;;;;24.45;22.63;100496.42;1762183;81;21022;-68
2023/05/29 10:46:03;;;;;;;3.95;1.82;;;;;;;24.29;22.62;100491.45;1776693;79;21023;-65
2023/05/29 10:48:41;;;;;;;5.97;1.80;;;;;;;24.21;22.77;100485.02;1789593;80;21042;-66
2023/05/29 10:51:28;;;;;;;2.30;1.50;;;;;;;24.19;22.84;100487.83;1763748;81;21034;-65
2023/05/29 10:53:57;;;;;;;5.85;1.47;;;;;;;24.16;22.94;100493.44;1777159;80;21458;-66
2023/05/29 10:56:29;;;;;;;6.05;1.67;;;;;;;24.11;23.07;100493.45;1791097;80;21454;-66
2023/05/29 10:59:01;;;;;;;6.50;1.77;;;;;;;24.07;22.90;100486.75;1763871;79;21167;-67
2023/05/29 11:01:32;;;;;;;3.35;1.70;;;;;;;24.03;23.11;100485.61;1762651;80;21026;-65
2023/05/29 11:04:26;;;;;;;4.08;1.50;;;;;;;24.04;23.11;100489.52;1785860;80;21104;-67
2023/05/29 11:06:57;;;;;;;3.95;1.40;;;;;;;24.01;23.04;100483.09;1785994;80;21026;-66
2023/05/29 11:09:37;;;;;;;3.17;1.50;;;;;;;23.92;23.05;100497.40;1786103;80;21065;-69
2023/05/29 11:12:38;;;;;;;3.47;1.35;;;;;;;23.83;23.16;100491.27;1786234;80;21065;-68
2023/05/29 11:15:13;;;;;;;3.02;1.42;;;;;;;23.77;23.06;100482.61;1786040;80;21513;-67
2023/05/29 11:17:46;;;;;;;5.13;1.70;;;;;;;23.72;23.07;100477.86;1786079;79;21021;-69
2023/05/29 11:20:37;;;;;;;3.52;1.50;;;;;;;23.70;23.39;100475.91;1778591;80;21059;-68
2023/05/29 11:23:08;;;;;;;;;;;;;;;23.69;23.19;100470.87;1779675;80;21047;-66
2023/05/29 11:25:39;;;;;;;4.53;1.30;;;;;;;23.67;23.13;100463.32;1777051;81;20159;-65
2023/05/29 11:28:10;;;;;;;2.47;1.37;;;;;;;23.68;23.30;100469.19;1780559;80;21054;-66
2023/05/29 11:30:52;;;;;;;3.65;2.00;;;;;;;23.68;22.94;100457.16;1782230;80;21082;-70
2023/05/29 11:33:26;;;;;;;9.60;4.15;;;;;;;23.64;23.13;100458.30;1782280;80;21094;-68
2023/05/29 11:35:59;;;;;;;8.90;3.50;;;;;;;23.65;23.20;100453.53;1782438;80;21063;-69
2023/05/29 11:38:29;;;;;;;3.62;1.40;;;;;;;23.68;23.45;100449.61;1782515;80;21010;-67
2023/05/29 11:41:01;;;;;;;2.17;1.42;;;;;;;23.76;23.24;100459.38;1782347;80;21066;-69
2023/05/29 11:43:31;;;;;;;3.80;1.37;;;;;;;23.80;23.38;100452.66;1755413;80;21054;-69